Time;durP1;ratioP1;P1;durP2;ratioP2;P2;SDS_P1;SDS_P2;PMS_P1;PMS_P2;Temp;Humidity;BMP_temperature;BMP_pressure;BME280_temperature;BME280_humidity;BME280_pressure;Samples;Min_cycle;Max_cycle;Signal;HPM_P1;HPM_P2
2023/08/04 00:00:29;;;;;;;10.48;2.78;;;;;;;;;;4996993;28;92753;-70
2023/08/04 00:02:56;;;;;;;15.98;3.38;;;;;;;;;;4990877;28;94307;-70
2023/08/04 00:05:22;;;;;;;13.38;3.00;;;;;;;;;;4991532;28;92595;-71
2023/08/04 00:07:48;;;;;;;17.00;3.85;;;;;;;;;;4995585;28;94471;-72
2023/08/04 00:10:15;;;;;;;16.73;3.45;;;;;;;;;;4994582;28;93409;-71
2023/08/04 00:12:41;;;;;;;16.02;3.05;;;;;;;;;;4992746;28;91745;-71
2023/08/04 00:15:08;;;;;;;15.02;3.30;;;;;;;;;;4993215;28;93444;-71
2023/08/04 00:17:37;;;;;;;18.02;3.47;;;;;;;;;;4992298;28;93540;-71
2023/08/04 00:20:04;;;;;;;12.13;2.95;;;;;;;;;;4987976;28;94818;-71
2023/08/04 00:22:30;;;;;;;12.18;3.55;;;;;;;;;;4989850;28;95476;-71
2023/08/04 00:24:57;;;;;;;18.33;2.90;;;;;;;;;;4990847;28;92980;-71
2023/08/04 00:27:23;;;;;;;9.35;2.90;;;;;;;;;;4991724;28;93393;-72
2023/08/04 00:29:49;;;;;;;15.40;3.25;;;;;;;;;;4987280;28;93983;-71
2023/08/04 00:32:16;;;;;;;11.55;3.53;;;;;;;;;;4987360;28;92776;-72
2023/08/04 00:34:42;;;;;;;18.95;3.67;;;;;;;;;;4991135;28;93476;-71
2023/08/04 00:37:08;;;;;;;11.85;2.92;;;;;;;;;;4989497;28;93676;-71
2023/08/04 00:39:35;;;;;;;21.58;3.25;;;;;;;;;;4989289;28;92928;-70
2023/08/04 00:42:01;;;;;;;12.95;3.05;;;;;;;;;;4992892;28;94997;-70
2023/08/04 00:44:28;;;;;;;11.48;3.40;;;;;;;;;;4991346;28;96806;-71
2023/08/04 00:46:54;;;;;;;13.82;3.40;;;;;;;;;;4989606;28;95509;-71
2023/08/04 00:49:20;;;;;;;11.20;3.05;;;;;;;;;;4989358;28;94466;-71
2023/08/04 00:51:47;;;;;;;13.38;2.90;;;;;;;;;;4987885;28;93056;-71
2023/08/04 00:54:14;;;;;;;16.45;3.45;;;;;;;;;;4991267;28;93433;-72
2023/08/04 00:56:41;;;;;;;12.35;3.15;;;;;;;;;;4990270;28;94228;-71
2023/08/04 00:59:07;;;;;;;13.63;2.88;;;;;;;;;;4992118;28;92429;-72
2023/08/04 01:01:34;;;;;;;9.20;2.67;;;;;;;;;;4988770;28;92210;-71
2023/08/04 01:04:00;;;;;;;12.60;3.30;;;;;;;;;;4996643;28;93393;-71
2023/08/04 01:06:27;;;;;;;16.58;3.38;;;;;;;;;;4995655;28;92613;-71
2023/08/04 01:08:59;;;;;;;15.27;3.00;;;;;;;;;;4989596;28;99396;-71
2023/08/04 01:11:30;;;;;;;22.42;3.83;;;;;;;;;;4997437;28;93436;-72
2023/08/04 01:13:58;;;;;;;15.02;3.65;;;;;;;;;;4991815;28;92994;-72
2023/08/04 01:16:24;;;;;;;13.93;3.28;;;;;;;;;;4995661;28;93408;-72
2023/08/04 01:18:50;;;;;;;15.57;3.03;;;;;;;;;;4994710;28;92560;-71
2023/08/04 01:21:17;;;;;;;8.65;3.00;;;;;;;;;;4996284;28;93496;-71
2023/08/04 01:23:43;;;;;;;15.95;3.08;;;;;;;;;;4995121;28;93442;-72
2023/08/04 01:26:10;;;;;;;12.93;3.15;;;;;;;;;;4994797;28;91701;-70
2023/08/04 01:28:37;;;;;;;11.07;2.70;;;;;;;;;;5003188;28;95384;-70
2023/08/04 01:31:04;;;;;;;12.15;3.22;;;;;;;;;;4994402;28;92563;-69
2023/08/04 01:33:31;;;;;;;15.32;3.40;;;;;;;;;;4992200;28;94924;-70
2023/08/04 01:35:57;;;;;;;8.38;2.35;;;;;;;;;;4994956;28;94410;-71
2023/08/04 01:38:23;;;;;;;12.98;3.03;;;;;;;;;;4995035;28;93239;-71
2023/08/04 01:40:50;;;;;;;11.25;2.78;;;;;;;;;;4987969;28;92966;-70
2023/08/04 01:43:16;;;;;;;18.35;3.28;;;;;;;;;;4996052;28;94177;-71
2023/08/04 01:45:42;;;;;;;9.82;2.70;;;;;;;;;;4989534;28;92629;-71
2023/08/04 01:48:09;;;;;;;12.70;2.78;;;;;;;;;;4995728;28;93162;-72
2023/08/04 01:50:35;;;;;;;14.98;3.13;;;;;;;;;;4989785;28;92698;-71
2023/08/04 01:53:02;;;;;;;13.15;3.55;;;;;;;;;;4992910;28;92579;-72
2023/08/04 01:55:28;;;;;;;15.57;3.05;;;;;;;;;;4999577;28;94640;-71
2023/08/04 01:57:54;;;;;;;9.07;2.63;;;;;;;;;;4997754;28;94859;-71
2023/08/04 02:00:21;;;;;;;13.85;3.33;;;;;;;;;;4994969;28;95497;-70
2023/08/04 02:02:47;;;;;;;11.50;2.78;;;;;;;;;;4997535;28;93423;-71
2023/08/04 02:05:14;;;;;;;17.25;3.97;;;;;;;;;;4991812;28;92559;-70
2023/08/04 02:07:40;;;;;;;14.95;3.17;;;;;;;;;;4990313;28;93126;-70
2023/08/04 02:10:07;;;;;;;17.15;3.78;;;;;;;;;;5004491;28;93404;-71
2023/08/04 02:12:33;;;;;;;7.43;3.55;;;;;;;;;;4994383;28;93072;-70
2023/08/04 02:15:00;;;;;;;13.70;3.42;;;;;;;;;;4995987;28;92587;-70
2023/08/04 02:17:26;;;;;;;12.70;3.13;;;;;;;;;;4993863;28;92413;-70
2023/08/04 02:19:53;;;;;;;14.52;3.17;;;;;;;;;;4998621;28;93121;-70
2023/08/04 02:22:19;;;;;;;20.23;3.45;;;;;;;;;;4989173;28;95887;-70
2023/08/04 02:24:46;;;;;;;19.00;3.67;;;;;;;;;;4992639;28;92619;-70
2023/08/04 02:27:12;;;;;;;22.88;4.22;;;;;;;;;;4993828;28;93091;-70
2023/08/04 02:29:38;;;;;;;14.30;3.70;;;;;;;;;;4991913;28;94684;-70
2023/08/04 02:32:05;;;;;;;18.98;3.85;;;;;;;;;;4994135;28;92838;-70
2023/08/04 02:34:32;;;;;;;12.27;3.53;;;;;;;;;;4993764;28;93371;-70
2023/08/04 02:36:58;;;;;;;20.88;4.22;;;;;;;;;;4993081;28;92403;-70
2023/08/04 02:39:24;;;;;;;14.18;3.80;;;;;;;;;;4992312;28;93169;-69
2023/08/04 02:41:51;;;;;;;19.52;3.88;;;;;;;;;;4997492;28;94364;-70
2023/08/04 02:44:17;;;;;;;15.35;3.42;;;;;;;;;;4992418;28;92467;-70
2023/08/04 02:46:44;;;;;;;12.88;3.28;;;;;;;;;;4992963;28;94872;-69
2023/08/04 02:49:11;;;;;;;12.65;4.03;;;;;;;;;;4987021;28;94660;-72
2023/08/04 02:51:37;;;;;;;17.92;4.50;;;;;;;;;;4993230;28;92590;-72
2023/08/04 02:54:03;;;;;;;14.00;3.95;;;;;;;;;;4990172;28;92663;-71
2023/08/04 02:56:30;;;;;;;15.27;3.65;;;;;;;;;;4991625;28;92935;-71
2023/08/04 02:58:56;;;;;;;17.25;4.78;;;;;;;;;;4996751;28;94314;-71
2023/08/04 03:01:22;;;;;;;11.85;3.88;;;;;;;;;;4990790;28;93559;-72
2023/08/04 03:03:49;;;;;;;16.95;4.25;;;;;;;;;;4993700;28;92051;-71
2023/08/04 03:06:15;;;;;;;19.73;4.68;;;;;;;;;;4992046;28;92472;-71
2023/08/04 03:08:42;;;;;;;23.23;4.93;;;;;;;;;;4987491;28;93377;-71
2023/08/04 03:11:10;;;;;;;18.23;4.95;;;;;;;;;;4989185;28;95083;-71
2023/08/04 03:13:37;;;;;;;18.33;4.13;;;;;;;;;;4992145;28;95450;-71
2023/08/04 03:16:03;;;;;;;16.63;4.47;;;;;;;;;;4992938;28;93338;-69
2023/08/04 03:18:30;;;;;;;22.17;4.85;;;;;;;;;;4992584;28;94517;-71
2023/08/04 03:20:57;;;;;;;17.67;4.15;;;;;;;;;;4991211;28;94072;-72
2023/08/04 03:23:23;;;;;;;14.40;4.32;;;;;;;;;;4993049;28;92718;-71
2023/08/04 03:25:50;;;;;;;18.48;5.28;;;;;;;;;;4992365;28;93243;-72
2023/08/04 03:28:16;;;;;;;14.98;4.43;;;;;;;;;;4992464;28;92675;-71
2023/08/04 03:30:43;;;;;;;16.55;4.72;;;;;;;;;;4988504;28;93196;-71
2023/08/04 03:33:09;;;;;;;15.75;4.40;;;;;;;;;;4993488;28;94215;-72
2023/08/04 03:35:36;;;;;;;18.92;4.88;;;;;;;;;;4992280;28;95744;-71
2023/08/04 03:38:03;;;;;;;13.10;4.57;;;;;;;;;;4996152;28;92650;-72
2023/08/04 03:40:29;;;;;;;19.70;4.63;;;;;;;;;;4992081;28;93391;-71
2023/08/04 03:42:56;;;;;;;17.77;4.70;;;;;;;;;;4992509;28;92897;-70
2023/08/04 03:45:22;;;;;;;21.52;5.28;;;;;;;;;;4992660;28;93165;-71
2023/08/04 03:47:48;;;;;;;23.73;5.53;;;;;;;;;;4990975;28;93689;-71
2023/08/04 03:50:15;;;;;;;19.15;5.55;;;;;;;;;;4988737;28;92439;-72
2023/08/04 03:52:41;;;;;;;16.23;4.93;;;;;;;;;;4992431;28;93679;-72
2023/08/04 03:55:08;;;;;;;20.17;5.07;;;;;;;;;;4988864;28;93402;-72
2023/08/04 03:57:34;;;;;;;37.92;5.82;;;;;;;;;;4995618;28;92393;-72
2023/08/04 04:00:01;;;;;;;15.88;5.30;;;;;;;;;;4990971;28;95758;-72
2023/08/04 04:02:27;;;;;;;19.92;5.25;;;;;;;;;;4990048;28;92571;-73
2023/08/04 04:04:54;;;;;;;22.20;4.70;;;;;;;;;;4992594;28;93567;-72
2023/08/04 04:07:20;;;;;;;16.30;5.15;;;;;;;;;;4992067;28;93770;-72
2023/08/04 04:09:46;;;;;;;19.83;4.88;;;;;;;;;;4988104;28;92652;-73
2023/08/04 04:12:13;;;;;;;23.13;5.30;;;;;;;;;;4991663;28;93852;-72
2023/08/04 04:14:39;;;;;;;13.00;5.35;;;;;;;;;;4993438;28;94184;-71
2023/08/04 04:17:05;;;;;;;13.93;4.85;;;;;;;;;;4992004;28;91793;-71
2023/08/04 04:19:32;;;;;;;16.40;5.40;;;;;;;;;;4995980;28;93159;-71
2023/08/04 04:21:58;;;;;;;23.10;5.72;;;;;;;;;;4992437;28;92611;-72
2023/08/04 04:24:24;;;;;;;18.52;4.68;;;;;;;;;;4990444;28;95293;-71
2023/08/04 04:26:51;;;;;;;15.45;4.82;;;;;;;;;;4988544;28;94420;-71
2023/08/04 04:29:17;;;;;;;18.67;5.13;;;;;;;;;;4992591;28;92588;-72
2023/08/04 04:31:43;;;;;;;14.75;4.40;;;;;;;;;;4991350;28;93517;-71
2023/08/04 04:34:10;;;;;;;26.48;5.55;;;;;;;;;;4992005;28;93471;-71
2023/08/04 04:36:37;;;;;;;14.40;4.63;;;;;;;;;;4988155;28;92761;-71
2023/08/04 04:39:03;;;;;;;24.80;5.10;;;;;;;;;;4993038;28;94098;-72
2023/08/04 04:41:30;;;;;;;16.17;5.53;;;;;;;;;;4996323;28;94030;-72
2023/08/04 04:43:56;;;;;;;21.30;4.72;;;;;;;;;;4992193;28;92662;-72
2023/08/04 04:46:23;;;;;;;19.45;4.90;;;;;;;;;;4992957;28;93462;-71
2023/08/04 04:48:49;;;;;;;22.15;5.07;;;;;;;;;;4986938;28;94753;-72
2023/08/04 04:51:16;;;;;;;15.38;5.03;;;;;;;;;;4989958;28;95521;-71
2023/08/04 04:53:42;;;;;;;15.02;4.93;;;;;;;;;;4991259;28;94527;-72
2023/08/04 04:56:09;;;;;;;19.52;4.68;;;;;;;;;;4987679;28;93413;-70
2023/08/04 04:58:35;;;;;;;11.93;4.70;;;;;;;;;;4993363;28;93149;-70
2023/08/04 05:01:04;;;;;;;13.35;4.30;;;;;;;;;;4991812;28;93436;-70
2023/08/04 05:03:31;;;;;;;13.30;4.57;;;;;;;;;;4995332;28;92575;-70
2023/08/04 05:05:57;;;;;;;14.60;4.80;;;;;;;;;;4986175;28;92579;-70
2023/08/04 05:08:24;;;;;;;18.90;4.82;;;;;;;;;;4985568;28;92565;-70
2023/08/04 05:10:51;;;;;;;15.00;4.72;;;;;;;;;;4989948;28;93207;-70
2023/08/04 05:13:17;;;;;;;19.40;5.00;;;;;;;;;;4989499;28;95857;-70
2023/08/04 05:15:46;;;;;;;19.15;4.78;;;;;;;;;;4989144;28;93770;-70
2023/08/04 05:18:13;;;;;;;20.20;4.95;;;;;;;;;;4988095;28;94084;-70
2023/08/04 05:20:39;;;;;;;19.05;5.07;;;;;;;;;;4988808;28;94422;-70
2023/08/04 05:23:05;;;;;;;15.93;5.15;;;;;;;;;;4995257;28;94061;-70
2023/08/04 05:25:32;;;;;;;23.75;5.75;;;;;;;;;;4997158;28;92478;-69
2023/08/04 05:28:17;;;;;;;23.30;6.35;;;;;;;;;;4988302;28;92529;-70
2023/08/04 05:30:43;;;;;;;19.88;5.25;;;;;;;;;;4985707;28;93581;-71
2023/08/04 05:33:10;;;;;;;22.10;5.85;;;;;;;;;;4986987;28;93435;-70
2023/08/04 05:35:38;;;;;;;15.88;6.43;;;;;;;;;;4987422;28;92890;-71
2023/08/04 05:38:05;;;;;;;15.88;5.72;;;;;;;;;;4986866;28;94955;-71
2023/08/04 05:40:34;;;;;;;14.15;5.97;;;;;;;;;;4993448;28;95881;-70
2023/08/04 05:43:04;;;;;;;18.63;6.13;;;;;;;;;;4987434;28;94189;-70
2023/08/04 05:45:34;;;;;;;17.35;6.43;;;;;;;;;;4992724;28;94167;-71
2023/08/04 05:48:01;;;;;;;;;;;;;;;;;;4988864;28;92636;-71
2023/08/04 05:50:27;;;;;;;16.95;5.88;;;;;;;;;;4991794;28;121702;-71
2023/08/04 05:52:54;;;;;;;13.70;6.03;;;;;;;;;;4989111;28;94469;-70
2023/08/04 05:55:20;;;;;;;22.33;7.05;;;;;;;;;;4991048;28;91809;-69
2023/08/04 05:57:47;;;;;;;28.25;6.03;;;;;;;;;;4991410;28;92564;-69
2023/08/04 06:00:13;;;;;;;15.40;6.93;;;;;;;;;;4991354;28;93431;-69
2023/08/04 06:02:41;;;;;;;13.52;6.22;;;;;;;;;;4992446;28;94808;-69
2023/08/04 06:05:08;;;;;;;12.77;5.90;;;;;;;;;;4996305;28;95696;-71
2023/08/04 06:07:34;;;;;;;19.63;6.82;;;;;;;;;;5000367;28;93401;-71
2023/08/04 06:10:00;;;;;;;20.63;7.15;;;;;;;;;;4995305;28;93007;-69
2023/08/04 06:12:27;;;;;;;14.63;6.38;;;;;;;;;;4994287;28;94622;-69
2023/08/04 06:14:56;;;;;;;17.48;6.25;;;;;;;;;;4991323;28;93095;-70
2023/08/04 06:17:22;;;;;;;22.35;6.65;;;;;;;;;;4994532;28;94199;-70
2023/08/04 06:19:49;;;;;;;18.73;7.05;;;;;;;;;;4994377;28;93005;-70
2023/08/04 06:22:15;;;;;;;18.25;6.20;;;;;;;;;;4994538;28;92454;-70
2023/08/04 06:24:42;;;;;;;17.55;6.25;;;;;;;;;;4991389;28;93995;-70
2023/08/04 06:27:08;;;;;;;19.85;6.15;;;;;;;;;;4990956;28;95783;-70
2023/08/04 06:29:35;;;;;;;17.40;5.88;;;;;;;;;;4997326;28;92563;-70
2023/08/04 06:32:01;;;;;;;18.25;6.32;;;;;;;;;;4986843;28;93478;-70
2023/08/04 06:34:28;;;;;;;22.10;6.55;;;;;;;;;;4992573;28;92548;-70
2023/08/04 06:36:54;;;;;;;19.25;6.22;;;;;;;;;;5002632;28;96065;-70
2023/08/04 06:39:22;;;;;;;14.00;6.00;;;;;;;;;;4991841;28;93401;-70
2023/08/04 06:41:48;;;;;;;19.38;5.25;;;;;;;;;;4992036;28;92543;-70
2023/08/04 06:44:15;;;;;;;19.15;5.70;;;;;;;;;;4994682;28;93490;-70
2023/08/04 06:46:41;;;;;;;23.08;5.80;;;;;;;;;;4988323;28;94555;-70
2023/08/04 06:49:08;;;;;;;24.80;5.57;;;;;;;;;;4990351;28;92705;-70
2023/08/04 06:51:34;;;;;;;15.05;5.32;;;;;;;;;;4990373;28;96526;-70
2023/08/04 06:54:01;;;;;;;16.85;5.32;;;;;;;;;;4990810;28;93584;-70
2023/08/04 06:56:27;;;;;;;10.27;5.15;;;;;;;;;;4993293;28;93256;-70
2023/08/04 06:58:54;;;;;;;13.13;4.78;;;;;;;;;;4991857;28;94172;-70
2023/08/04 07:01:21;;;;;;;27.15;5.75;;;;;;;;;;4987809;28;94096;-70
2023/08/04 07:03:47;;;;;;;16.38;5.13;;;;;;;;;;4990426;28;94212;-69
2023/08/04 07:06:14;;;;;;;10.68;5.03;;;;;;;;;;4985692;28;93781;-70
2023/08/04 07:08:40;;;;;;;15.70;5.65;;;;;;;;;;4991694;28;91888;-70
2023/08/04 07:11:16;;;;;;;18.05;4.82;;;;;;;;;;4991098;28;92880;-70
2023/08/04 07:13:43;;;;;;;11.73;4.72;;;;;;;;;;4995848;28;93904;-70
2023/08/04 07:16:10;;;;;;;15.93;4.82;;;;;;;;;;4992688;28;94827;-70
2023/08/04 07:18:37;;;;;;;13.52;4.30;;;;;;;;;;4991708;28;93411;-75
2023/08/04 07:21:06;;;;;;;13.05;3.75;;;;;;;;;;4992716;28;93099;-79
2023/08/04 07:23:33;;;;;;;9.70;4.13;;;;;;;;;;4987587;28;93188;-74
2023/08/04 07:25:59;;;;;;;17.38;4.60;;;;;;;;;;4997668;28;93466;-74
2023/08/04 07:28:26;;;;;;;9.70;4.13;;;;;;;;;;4987542;28;93301;-73
2023/08/04 07:30:52;;;;;;;30.75;5.10;;;;;;;;;;4985665;28;92636;-74
2023/08/04 07:33:18;;;;;;;8.60;4.10;;;;;;;;;;4992882;28;93083;-74
2023/08/04 07:35:51;;;;;;;12.68;4.20;;;;;;;;;;4995676;28;92449;-73
2023/08/04 07:38:17;;;;;;;10.55;4.53;;;;;;;;;;4991260;28;93362;-74
2023/08/04 07:40:44;;;;;;;12.55;4.85;;;;;;;;;;4989461;28;95633;-73
2023/08/04 07:43:11;;;;;;;11.38;4.65;;;;;;;;;;4988200;28;95412;-74
2023/08/04 07:45:38;;;;;;;18.67;4.88;;;;;;;;;;4987393;28;93955;-73
2023/08/04 07:48:04;;;;;;;9.13;3.90;;;;;;;;;;4990484;28;92648;-73
2023/08/04 07:50:31;;;;;;;11.55;4.20;;;;;;;;;;4985128;28;93126;-73
2023/08/04 07:52:57;;;;;;;12.70;3.63;;;;;;;;;;4987834;28;93584;-72
2023/08/04 07:55:23;;;;;;;7.78;2.83;;;;;;;;;;4995530;28;92427;-72
2023/08/04 07:57:51;;;;;;;9.85;3.55;;;;;;;;;;4991898;28;93903;-73
2023/08/04 08:00:17;;;;;;;6.63;2.80;;;;;;;;;;4992312;28;92547;-73
2023/08/04 08:02:44;;;;;;;10.75;2.83;;;;;;;;;;4992824;28;94152;-72
2023/08/04 08:05:10;;;;;;;8.73;3.13;;;;;;;;;;4989130;28;97731;-73
2023/08/04 08:07:37;;;;;;;7.10;2.95;;;;;;;;;;4991066;28;94502;-74
2023/08/04 08:10:11;;;;;;;10.02;3.80;;;;;;;;;;4991961;28;93407;-74
2023/08/04 08:12:37;;;;;;;10.75;3.47;;;;;;;;;;4993052;28;93351;-72
2023/08/04 08:15:06;;;;;;;9.18;3.50;;;;;;;;;;4992463;28;92734;-73
2023/08/04 08:17:33;;;;;;;7.87;3.20;;;;;;;;;;4990629;28;93219;-72
2023/08/04 08:19:59;;;;;;;5.82;2.10;;;;;;;;;;4990057;28;94264;-73
2023/08/04 08:22:26;;;;;;;9.27;2.55;;;;;;;;;;4987292;28;93120;-73
2023/08/04 08:24:53;;;;;;;7.05;2.33;;;;;;;;;;4990589;28;94121;-72
2023/08/04 08:27:19;;;;;;;10.30;2.90;;;;;;;;;;4991248;28;92344;-73
2023/08/04 08:29:45;;;;;;;6.43;2.30;;;;;;;;;;4990372;28;94799;-72
2023/08/04 08:32:12;;;;;;;9.00;2.33;;;;;;;;;;4994690;28;93438;-73
2023/08/04 08:34:38;;;;;;;3.97;1.92;;;;;;;;;;4989983;28;92803;-72
2023/08/04 08:37:07;;;;;;;4.03;1.98;;;;;;;;;;4990466;28;94136;-72
2023/08/04 08:39:33;;;;;;;5.25;2.13;;;;;;;;;;4991698;28;93419;-72
2023/08/04 08:42:00;;;;;;;7.40;2.28;;;;;;;;;;4987932;28;94182;-72
2023/08/04 08:44:26;;;;;;;6.53;2.10;;;;;;;;;;4987527;28;93709;-72
2023/08/04 08:46:53;;;;;;;3.72;1.90;;;;;;;;;;4990953;28;91733;-72
2023/08/04 08:49:31;;;;;;;6.35;2.38;;;;;;;;;;4992890;28;93490;-73
2023/08/04 08:51:58;;;;;;;6.95;2.42;;;;;;;;;;4990396;28;93434;-71
2023/08/04 08:54:25;;;;;;;10.32;2.83;;;;;;;;;;4991087;28;94945;-71
2023/08/04 08:56:52;;;;;;;5.55;2.05;;;;;;;;;;4987911;28;95542;-72
2023/08/04 08:59:18;;;;;;;4.70;1.80;;;;;;;;;;4991529;28;93431;-72
2023/08/04 09:01:45;;;;;;;5.65;1.75;;;;;;;;;;4991235;28;92689;-73
2023/08/04 09:04:12;;;;;;;5.82;1.65;;;;;;;;;;4991671;28;93473;-72
2023/08/04 09:06:39;;;;;;;2.58;1.40;;;;;;;;;;4990260;28;92547;-72
2023/08/04 09:09:05;;;;;;;7.47;1.83;;;;;;;;;;5000545;28;94145;-72
2023/08/04 09:11:32;;;;;;;3.65;1.40;;;;;;;;;;4986748;28;92706;-72
2023/08/04 09:14:00;;;;;;;3.10;1.55;;;;;;;;;;4990461;28;92552;-72
2023/08/04 09:16:36;;;;;;;4.68;1.50;;;;;;;;;;4992484;28;93159;-73
2023/08/04 09:19:07;;;;;;;6.63;1.52;;;;;;;;;;4987512;28;95715;-73
2023/08/04 09:21:34;;;;;;;6.45;1.95;;;;;;;;;;4985289;28;92548;-73
2023/08/04 09:24:03;;;;;;;3.50;1.52;;;;;;;;;;4993456;28;93706;-73
2023/08/04 09:26:40;;;;;;;7.60;1.97;;;;;;;;;;4987833;28;92686;-73
2023/08/04 09:29:06;;;;;;;3.85;1.20;;;;;;;;;;4980763;28;92926;-73
2023/08/04 09:31:39;;;;;;;2.80;1.63;;;;;;;;;;4990656;28;93546;-73
2023/08/04 09:34:06;;;;;;;4.80;1.67;;;;;;;;;;4983173;28;92575;-73
2023/08/04 09:36:43;;;;;;;4.63;1.52;;;;;;;;;;4991480;28;92400;-73
2023/08/04 09:39:10;;;;;;;7.57;1.75;;;;;;;;;;4990357;28;94372;-73
2023/08/04 09:41:46;;;;;;;3.88;1.70;;;;;;;;;;4996406;28;92813;-73
2023/08/04 09:44:14;;;;;;;5.63;1.48;;;;;;;;;;4994188;28;95184;-73
2023/08/04 09:46:51;;;;;;;2.60;1.73;;;;;;;;;;4998329;28;92649;-73
2023/08/04 09:49:18;;;;;;;9.00;2.00;;;;;;;;;;4993519;28;93292;-73
2023/08/04 09:51:44;;;;;;;3.78;1.92;;;;;;;;;;4994797;28;93200;-73
2023/08/04 09:54:13;;;;;;;10.27;1.70;;;;;;;;;;4991917;28;92532;-73
2023/08/04 09:56:40;;;;;;;4.97;1.77;;;;;;;;;;4989573;28;94304;-73
2023/08/04 09:59:07;;;;;;;6.78;1.83;;;;;;;;;;4993158;28;93750;-73
2023/08/04 10:01:34;;;;;;;8.88;1.52;;;;;;;;;;4993288;28;91792;-73
2023/08/04 10:04:01;;;;;;;7.20;1.35;;;;;;;;;;4992493;28;92572;-73
2023/08/04 10:06:27;;;;;;;4.78;1.58;;;;;;;;;;4997731;28;93489;-73
2023/08/04 10:08:55;;;;;;;7.30;2.05;;;;;;;;;;4992311;28;94913;-74
2023/08/04 10:11:22;;;;;;;5.47;1.95;;;;;;;;;;4993989;28;93480;-73
2023/08/04 10:13:52;;;;;;;11.57;1.73;;;;;;;;;;4993134;28;92501;-73
2023/08/04 10:16:20;;;;;;;14.45;1.85;;;;;;;;;;4994138;28;93290;-73
2023/08/04 10:18:46;;;;;;;6.75;1.67;;;;;;;;;;4994760;28;94699;-73
2023/08/04 10:21:13;;;;;;;4.90;2.03;;;;;;;;;;4992253;28;92649;-74
2023/08/04 10:23:40;;;;;;;7.45;1.98;;;;;;;;;;4993417;28;94119;-73
2023/08/04 10:26:10;;;;;;;12.38;2.20;;;;;;;;;;4995410;28;92715;-73
2023/08/04 10:28:56;;;;;;;6.28;1.60;;;;;;;;;;4997253;28;92649;-73
2023/08/04 10:31:39;;;;;;;8.88;1.90;;;;;;;;;;4988136;28;93608;-73
2023/08/04 10:34:14;;;;;;;3.15;1.50;;;;;;;;;;4988019;28;94828;-73
2023/08/04 10:37:04;;;;;;;8.00;1.67;;;;;;;;;;4990343;28;96684;-73
2023/08/04 10:39:31;;;;;;;7.45;1.60;;;;;;;;;;4985467;28;93599;-73
2023/08/04 10:41:58;;;;;;;4.90;1.63;;;;;;;;;;4988290;28;92752;-73
2023/08/04 10:44:28;;;;;;;6.07;1.48;;;;;;;;;;4994170;28;93064;-73
2023/08/04 10:46:58;;;;;;;7.20;1.65;;;;;;;;;;4993258;28;93423;-70
2023/08/04 10:49:25;;;;;;;4.50;1.95;;;;;;;;;;4991485;28;94046;-69
2023/08/04 10:51:52;;;;;;;10.70;2.13;;;;;;;;;;4992451;28;93152;-69
2023/08/04 10:54:19;;;;;;;11.77;2.80;;;;;;;;;;4992494;28;93060;-69
2023/08/04 10:56:46;;;;;;;11.07;2.20;;;;;;;;;;4992355;28;93508;-69
2023/08/04 10:59:12;;;;;;;14.43;2.45;;;;;;;;;;4989085;28;96150;-69
2023/08/04 11:01:38;;;;;;;6.72;2.05;;;;;;;;;;4992871;28;92768;-69
2023/08/04 11:04:05;;;;;;;3.90;1.42;;;;;;;;;;4987163;28;93268;-69
2023/08/04 11:06:31;;;;;;;10.30;1.00;;;;;;;;;;4993109;28;93146;-70
2023/08/04 11:08:58;;;;;;;4.47;1.30;;;;;;;;;;4993284;28;93930;-70
2023/08/04 11:11:25;;;;;;;4.43;1.23;;;;;;;;;;4997443;28;93026;-70
2023/08/04 11:13:55;;;;;;;6.25;1.38;;;;;;;;;;4995280;28;93382;-69
2023/08/04 11:16:23;;;;;;;6.35;1.83;;;;;;;;;;4993284;28;93275;-70
2023/08/04 11:18:52;;;;;;;6.65;1.63;;;;;;;;;;4990612;28;92646;-70
2023/08/04 11:21:19;;;;;;;6.20;1.60;;;;;;;;;;4990030;28;92462;-70
2023/08/04 11:23:46;;;;;;;6.88;1.80;;;;;;;;;;4989051;28;97785;-70
2023/08/04 11:26:14;;;;;;;5.82;1.83;;;;;;;;;;4991519;28;93386;-70
2023/08/04 11:28:41;;;;;;;12.60;2.00;;;;;;;;;;4992311;28;92554;-70
2023/08/04 11:31:08;;;;;;;7.88;2.15;;;;;;;;;;4993368;28;94238;-70
2023/08/04 11:33:35;;;;;;;3.15;1.60;;;;;;;;;;4991016;28;93412;-70
2023/08/04 11:36:03;;;;;;;5.60;1.58;;;;;;;;;;4994789;28;92551;-69
2023/08/04 11:38:30;;;;;;;3.28;1.25;;;;;;;;;;4989316;28;93433;-70
2023/08/04 11:40:58;;;;;;;5.10;1.65;;;;;;;;;;4989832;28;92038;-72
2023/08/04 11:43:25;;;;;;;6.13;1.60;;;;;;;;;;4990831;28;93397;-70
2023/08/04 11:45:51;;;;;;;5.32;1.88;;;;;;;;;;4991426;28;93367;-69
2023/08/04 11:48:19;;;;;;;4.72;1.73;;;;;;;;;;4991202;28;96562;-70
2023/08/04 11:50:46;;;;;;;8.80;2.40;;;;;;;;;;4993659;28;95509;-70
2023/08/04 11:53:16;;;;;;;5.10;1.50;;;;;;;;;;4987737;28;94805;-70
2023/08/04 11:55:56;;;;;;;8.48;1.77;;;;;;;;;;4991147;28;92372;-69
2023/08/04 11:58:50;;;;;;;4.22;1.42;;;;;;;;;;4989004;28;93251;-74
2023/08/04 12:01:30;;;;;;;7.10;1.92;;;;;;;;;;4988508;28;92579;-73
2023/08/04 12:03:56;;;;;;;4.07;1.35;;;;;;;;;;4988214;28;93289;-74
2023/08/04 12:06:24;;;;;;;5.88;1.63;;;;;;;;;;4988541;28;92723;-73
2023/08/04 12:08:51;;;;;;;9.23;1.80;;;;;;;;;;4989369;28;92588;-74
2023/08/04 12:11:18;;;;;;;7.90;1.98;;;;;;;;;;4988599;28;92508;-74
2023/08/04 12:13:45;;;;;;;9.00;2.03;;;;;;;;;;4990445;28;95795;-73
2023/08/04 12:16:12;;;;;;;6.18;2.20;;;;;;;;;;4991934;28;92327;-73
2023/08/04 12:18:41;;;;;;;7.28;2.00;;;;;;;;;;4994781;28;92773;-72
2023/08/04 12:21:10;;;;;;;8.50;2.10;;;;;;;;;;4990530;28;92640;-72
2023/08/04 12:23:37;;;;;;;6.40;1.65;;;;;;;;;;4992477;28;93136;-73
2023/08/04 12:26:04;;;;;;;8.55;1.92;;;;;;;;;;4992065;28;93389;-73
2023/08/04 12:28:31;;;;;;;5.75;1.77;;;;;;;;;;4987461;28;92724;-72
2023/08/04 12:30:57;;;;;;;6.85;2.08;;;;;;;;;;4991763;28;92415;-73
2023/08/04 12:33:40;;;;;;;8.27;1.63;;;;;;;;;;4983697;28;94940;-73
2023/08/04 12:36:06;;;;;;;10.07;1.63;;;;;;;;;;4992558;28;92504;-72
2023/08/04 12:38:33;;;;;;;2.58;1.17;;;;;;;;;;4990063;28;95120;-72
2023/08/04 12:40:59;;;;;;;2.60;1.40;;;;;;;;;;4996243;28;94409;-74
2023/08/04 12:43:26;;;;;;;5.75;1.20;;;;;;;;;;4992154;28;94204;-72
2023/08/04 12:45:52;;;;;;;4.53;1.67;;;;;;;;;;4988902;28;93378;-72
2023/08/04 12:48:19;;;;;;;12.27;2.10;;;;;;;;;;4985943;28;92814;-72
2023/08/04 12:50:46;;;;;;;3.25;1.38;;;;;;;;;;4989344;28;93054;-72
2023/08/04 12:53:14;;;;;;;4.80;1.48;;;;;;;;;;4990609;28;92610;-72
2023/08/04 12:55:41;;;;;;;4.85;1.38;;;;;;;;;;4988624;28;92050;-73
2023/08/04 12:58:07;;;;;;;5.13;1.50;;;;;;;;;;4991677;28;93578;-73
2023/08/04 13:00:33;;;;;;;2.83;1.02;;;;;;;;;;4990753;28;94260;-74
2023/08/04 13:03:00;;;;;;;4.85;1.60;;;;;;;;;;4989507;28;94922;-73
2023/08/04 13:05:26;;;;;;;17.75;1.60;;;;;;;;;;4988228;28;93574;-73
2023/08/04 13:07:53;;;;;;;2.88;1.17;;;;;;;;;;4982375;28;94444;-73
2023/08/04 13:10:19;;;;;;;2.22;1.23;;;;;;;;;;4991876;28;93953;-74
2023/08/04 13:12:46;;;;;;;5.72;1.38;;;;;;;;;;4995449;28;93402;-72
2023/08/04 13:15:12;;;;;;;4.15;1.20;;;;;;;;;;4997043;28;92638;-73
2023/08/04 13:17:39;;;;;;;5.65;1.27;;;;;;;;;;4995296;28;93221;-72
2023/08/04 13:20:05;;;;;;;3.63;1.13;;;;;;;;;;4992906;28;92939;-73
2023/08/04 13:22:32;;;;;;;4.80;1.30;;;;;;;;;;4997049;28;92405;-72
2023/08/04 13:24:58;;;;;;;2.55;1.30;;;;;;;;;;4997975;28;93589;-73
2023/08/04 13:27:24;;;;;;;8.25;1.42;;;;;;;;;;4993594;28;96349;-73
2023/08/04 13:29:51;;;;;;;8.95;1.00;;;;;;;;;;4990614;28;94268;-72
2023/08/04 13:32:17;;;;;;;6.25;1.75;;;;;;;;;;4990710;28;94410;-73
2023/08/04 13:34:44;;;;;;;5.28;1.42;;;;;;;;;;4994797;28;92516;-73
2023/08/04 13:37:10;;;;;;;5.68;1.27;;;;;;;;;;4995304;28;93352;-73
2023/08/04 13:39:36;;;;;;;2.72;1.20;;;;;;;;;;4989433;28;93372;-73
2023/08/04 13:42:03;;;;;;;4.13;1.23;;;;;;;;;;4993200;28;92407;-73
2023/08/04 13:44:29;;;;;;;3.03;1.20;;;;;;;;;;4995039;28;93059;-73
2023/08/04 13:46:56;;;;;;;5.10;1.25;;;;;;;;;;4991735;28;94369;-73
2023/08/04 13:49:24;;;;;;;4.93;1.90;;;;;;;;;;4994662;28;93059;-72
2023/08/04 13:51:50;;;;;;;5.40;1.40;;;;;;;;;;4989470;28;97590;-73
2023/08/04 13:54:16;;;;;;;8.50;1.48;;;;;;;;;;4995572;28;92540;-73
2023/08/04 13:56:43;;;;;;;11.90;1.65;;;;;;;;;;4992755;28;93471;-72
2023/08/04 13:59:09;;;;;;;5.72;1.45;;;;;;;;;;4993999;28;93735;-73
2023/08/04 14:01:36;;;;;;;4.38;1.63;;;;;;;;;;4994712;28;95349;-73
2023/08/04 14:04:02;;;;;;;12.10;1.63;;;;;;;;;;4992476;28;93127;-72
2023/08/04 14:06:30;;;;;;;2.60;1.30;;;;;;;;;;4991423;28;93484;-73
2023/08/04 14:08:56;;;;;;;3.35;1.25;;;;;;;;;;4997744;28;91719;-73
2023/08/04 14:11:22;;;;;;;5.28;1.50;;;;;;;;;;4993369;28;93440;-73
2023/08/04 14:13:49;;;;;;;4.20;1.65;;;;;;;;;;4989455;28;92394;-73
2023/08/04 14:16:15;;;;;;;4.45;1.30;;;;;;;;;;4990444;28;95075;-73
2023/08/04 14:18:42;;;;;;;4.40;1.30;;;;;;;;;;4998145;28;96324;-73
2023/08/04 14:21:08;;;;;;;6.18;1.33;;;;;;;;;;4993853;28;92983;-73
2023/08/04 14:23:35;;;;;;;4.90;0.95;;;;;;;;;;4992956;28;93271;-73
2023/08/04 14:26:02;;;;;;;5.22;1.17;;;;;;;;;;4993875;28;93308;-73
2023/08/04 14:28:29;;;;;;;3.70;1.00;;;;;;;;;;4996330;28;94573;-72
2023/08/04 14:30:55;;;;;;;6.03;1.38;;;;;;;;;;4994173;28;93448;-72
2023/08/04 14:33:22;;;;;;;6.35;0.93;;;;;;;;;;4994868;28;92136;-73
2023/08/04 14:35:48;;;;;;;6.22;1.55;;;;;;;;;;4994603;28;92593;-73